Time;durP1;ratioP1;P1;durP2;ratioP2;P2;SDS_P1;SDS_P2;PMS_P1;PMS_P2;Temp;Humidity;BMP_temperature;BMP_pressure;BME280_temperature;BME280_humidity;BME280_pressure;Samples;Min_cycle;Max_cycle;Signal;HPM_P1;HPM_P2
2020/12/22 00:01:31;;;;;;;74.43;45.28;;;22.40;32.90;;;;;;6173808;28;83129;-51
2020/12/22 00:04:31;;;;;;;67.13;41.97;;;22.40;32.90;;;;;;6173898;27;84218;-52
2020/12/22 00:07:32;;;;;;;71.00;43.38;;;22.40;32.90;;;;;;6180941;28;83326;-51
2020/12/22 00:10:32;;;;;;;65.95;42.28;;;22.30;32.80;;;;;;6181029;27;84659;-49
2020/12/22 00:13:33;;;;;;;69.40;44.45;;;22.30;32.90;;;;;;6182813;28;83996;-51
2020/12/22 00:16:33;;;;;;;69.93;44.35;;;22.30;32.80;;;;;;6177083;27;83207;-47
2020/12/22 00:19:34;;;;;;;72.47;44.72;;;22.30;32.80;;;;;;6176895;28;83613;-51
2020/12/22 00:22:34;;;;;;;68.40;43.35;;;22.30;33.10;;;;;;6172609;27;83965;-51
2020/12/22 00:25:35;;;;;;;64.90;42.10;;;22.30;33.60;;;;;;6178238;28;83162;-52
2020/12/22 00:28:35;;;;;;;69.10;42.38;;;22.30;32.90;;;;;;6173026;27;83792;-51
2020/12/22 00:31:36;;;;;;;70.45;41.97;;;22.30;32.80;;;;;;6175304;28;85981;-52
2020/12/22 00:34:37;;;;;;;71.57;42.47;;;22.20;32.70;;;;;;6174929;28;85930;-51
2020/12/22 00:37:37;;;;;;;68.97;42.63;;;22.20;32.90;;;;;;6175631;28;84735;-53
2020/12/22 00:40:38;;;;;;;66.45;41.55;;;22.20;32.80;;;;;;6169353;28;83467;-52
2020/12/22 00:43:38;;;;;;;66.60;42.58;;;22.20;32.70;;;;;;6168584;28;83707;-52
2020/12/22 00:46:39;;;;;;;67.93;42.13;;;22.20;32.90;;;;;;6175787;27;83399;-54
2020/12/22 00:49:39;;;;;;;65.45;41.55;;;22.20;32.60;;;;;;6174667;28;83161;-50
2020/12/22 00:52:40;;;;;;;70.53;41.47;;;22.20;32.80;;;;;;6175632;28;83895;-51
2020/12/22 00:55:45;;;;;;;64.38;41.53;;;22.20;32.70;;;;;;6173723;28;84102;-48
2020/12/22 00:58:46;;;;;;;64.57;40.20;;;22.20;32.50;;;;;;6175161;27;83203;-48
2020/12/22 01:01:47;;;;;;;69.68;41.67;;;22.20;33.30;;;;;;6179163;28;84118;-47
2020/12/22 01:04:49;;;;;;;67.15;41.45;;;22.20;32.80;;;;;;6178278;28;83453;-48
2020/12/22 01:07:49;;;;;;;69.78;43.30;;;22.20;32.60;;;;;;6178997;27;83009;-47
2020/12/22 01:10:50;;;;;;;65.88;41.53;;;22.20;32.70;;;;;;6178396;28;83333;-48
2020/12/22 01:13:50;;;;;;;66.88;41.78;;;22.10;32.70;;;;;;6181018;27;83431;-48
2020/12/22 01:16:51;;;;;;;66.82;41.65;;;22.10;33.10;;;;;;6181435;28;84070;-52
2020/12/22 01:19:53;;;;;;;65.65;41.50;;;22.20;32.60;;;;;;6192699;28;82941;-47
2020/12/22 01:22:53;;;;;;;61.42;39.53;;;22.10;32.30;;;;;;6179686;28;84112;-51
2020/12/22 01:25:54;;;;;;;61.95;39.40;;;22.10;32.20;;;;;;6159864;28;83968;-48
2020/12/22 01:28:54;;;;;;;67.45;40.55;;;22.10;32.40;;;;;;6172867;27;82905;-49
2020/12/22 01:31:55;;;;;;;62.78;38.67;;;22.10;32.20;;;;;;6174562;28;83863;-49
2020/12/22 01:34:55;;;;;;;63.22;39.58;;;22.10;32.20;;;;;;6154149;28;84770;-50
2020/12/22 01:37:56;;;;;;;57.70;37.13;;;22.10;32.10;;;;;;6183545;28;84034;-48
2020/12/22 01:40:56;;;;;;;60.78;37.08;;;22.10;32.30;;;;;;6178812;28;82743;-48
2020/12/22 01:43:57;;;;;;;57.08;35.63;;;22.10;32.10;;;;;;6183299;27;83155;-50
2020/12/22 01:46:58;;;;;;;57.60;35.28;;;22.10;32.20;;;;;;6179003;28;84122;-47
2020/12/22 01:49:58;;;;;;;60.88;37.50;;;22.10;32.20;;;;;;6177225;27;83504;-47
2020/12/22 01:52:59;;;;;;;59.05;36.53;;;22.10;32.10;;;;;;6177144;28;83328;-48
2020/12/22 01:55:59;;;;;;;54.47;35.85;;;22.10;32.30;;;;;;6178199;28;84128;-48
2020/12/22 01:59:00;;;;;;;54.35;35.35;;;22.00;32.40;;;;;;6176397;28;83426;-48
2020/12/22 02:02:00;;;;;;;54.13;35.13;;;22.00;32.30;;;;;;6189414;28;83024;-48
2020/12/22 02:05:01;;;;;;;52.20;33.15;;;22.00;32.50;;;;;;6167999;28;83197;-51
2020/12/22 02:08:01;;;;;;;49.83;32.15;;;22.00;32.50;;;;;;6152918;28;85348;-49
2020/12/22 02:11:02;;;;;;;53.05;34.28;;;22.00;32.50;;;;;;6174703;27;83448;-48
2020/12/22 02:14:02;;;;;;;55.38;33.28;;;22.00;32.30;;;;;;6179667;28;83422;-51
2020/12/22 02:17:03;;;;;;;49.38;32.47;;;22.00;32.60;;;;;;6177565;27;83828;-52
2020/12/22 02:20:03;;;;;;;52.05;33.55;;;22.00;32.30;;;;;;6178215;28;83540;-49
2020/12/22 02:23:04;;;;;;;52.35;32.40;;;22.00;32.50;;;;;;6174775;27;84040;-52
2020/12/22 02:26:04;;;;;;;49.45;32.65;;;22.00;32.50;;;;;;6178607;28;83264;-47
2020/12/22 02:29:05;;;;;;;49.95;32.40;;;22.00;32.50;;;;;;6178410;28;83155;-48
2020/12/22 02:32:05;;;;;;;49.88;31.75;;;22.00;32.50;;;;;;6179717;28;83355;-51
2020/12/22 02:35:06;;;;;;;47.50;31.02;;;22.00;32.50;;;;;;6177869;28;84130;-51
2020/12/22 02:38:06;;;;;;;56.20;34.60;;;21.90;32.90;;;;;;6177796;28;83649;-48
2020/12/22 02:41:07;;;;;;;49.28;32.70;;;21.90;32.50;;;;;;6174154;28;83346;-49
2020/12/22 02:44:07;;;;;;;49.20;32.03;;;21.90;32.20;;;;;;6175159;27;83350;-50
2020/12/22 02:47:08;;;;;;;47.95;31.73;;;21.90;32.70;;;;;;6174725;28;83045;-49
2020/12/22 02:50:09;;;;;;;45.42;30.45;;;21.90;32.70;;;;;;6169029;28;83205;-47
2020/12/22 02:53:09;;;;;;;50.05;31.65;;;21.90;32.70;;;;;;6175819;28;83592;-47
2020/12/22 02:56:10;;;;;;;49.42;30.52;;;21.90;32.50;;;;;;6174909;27;83039;-53
2020/12/22 02:59:10;;;;;;;44.42;28.05;;;21.90;32.80;;;;;;6177568;28;83396;-52
2020/12/22 03:02:11;;;;;;;44.95;29.67;;;21.90;32.70;;;;;;6175097;28;83454;-50
2020/12/22 03:05:11;;;;;;;46.45;30.23;;;21.90;32.70;;;;;;6175751;28;85790;-52
2020/12/22 03:08:12;;;;;;;50.97;30.85;;;21.90;32.70;;;;;;6172903;28;83366;-49
2020/12/22 03:11:12;;;;;;;46.35;29.98;;;21.90;32.90;;;;;;6172648;28;83451;-49
2020/12/22 03:14:13;;;;;;;48.33;31.17;;;21.90;32.70;;;;;;6175471;28;83920;-51
2020/12/22 03:17:13;;;;;;;43.42;28.30;;;21.90;32.70;;;;;;6176728;28;83264;-50
2020/12/22 03:20:14;;;;;;;46.65;29.38;;;21.90;32.80;;;;;;6167063;28;83010;-50
2020/12/22 03:23:14;;;;;;;46.13;28.75;;;21.90;32.60;;;;;;6174468;27;84164;-51
2020/12/22 03:26:15;;;;;;;46.50;28.95;;;21.90;32.90;;;;;;6178477;28;84096;-52
2020/12/22 03:29:15;;;;;;;44.63;29.75;;;21.90;32.90;;;;;;6158748;27;84323;-49
2020/12/22 03:32:16;;;;;;;47.28;29.80;;;21.90;33.00;;;;;;6171009;28;83716;-50
2020/12/22 03:35:16;;;;;;;42.53;28.58;;;21.90;32.90;;;;;;6131906;27;794247;-51
2020/12/22 03:38:17;;;;;;;47.97;29.88;;;21.90;32.90;;;;;;6169088;28;83141;-48
2020/12/22 03:41:17;;;;;;;46.55;29.45;;;21.90;33.00;;;;;;6157438;28;84804;-49
2020/12/22 03:44:18;;;;;;;43.17;26.27;;;21.90;32.80;;;;;;6167131;28;82891;-50
2020/12/22 03:47:18;;;;;;;41.65;27.30;;;21.90;33.20;;;;;;6172603;28;83763;-52
2020/12/22 03:50:19;;;;;;;47.42;29.35;;;21.90;33.20;;;;;;6181339;27;83210;-49
2020/12/22 03:53:19;;;;;;;45.50;28.65;;;21.90;33.20;;;;;;6175992;28;86804;-46
2020/12/22 03:56:20;;;;;;;43.15;28.42;;;21.90;33.20;;;;;;6167819;27;85835;-46
2020/12/22 03:59:20;;;;;;;41.83;27.45;;;21.90;33.00;;;;;;6173242;28;85990;-47
2020/12/22 04:02:21;;;;;;;45.60;29.58;;;21.90;33.20;;;;;;6177277;28;83112;-51
2020/12/22 04:05:23;;;;;;;44.00;28.20;;;21.80;33.10;;;;;;6181293;27;83144;-47
2020/12/22 04:08:23;;;;;;;41.55;27.95;;;21.80;33.10;;;;;;6175825;28;83486;-50
2020/12/22 04:11:24;;;;;;;43.78;28.67;;;21.90;33.00;;;;;;6176313;28;83479;-50
2020/12/22 04:14:24;;;;;;;42.60;29.38;;;21.90;33.10;;;;;;6177993;28;83634;-50
2020/12/22 04:17:25;;;;;;;45.25;27.27;;;21.80;33.10;;;;;;6174260;28;83359;-49
2020/12/22 04:20:25;;;;;;;40.45;26.75;;;21.80;33.50;;;;;;6171805;28;83784;-50
2020/12/22 04:23:26;;;;;;;44.47;27.33;;;21.80;33.70;;;;;;6180275;27;83503;-50
2020/12/22 04:26:26;;;;;;;37.55;25.30;;;21.80;33.70;;;;;;6182246;28;86109;-52
2020/12/22 04:29:27;;;;;;;39.90;25.02;;;21.80;34.10;;;;;;6177850;28;83183;-48
2020/12/22 04:32:27;;;;;;;38.63;25.55;;;21.80;34.20;;;;;;6184356;28;84556;-50
2020/12/22 04:35:28;;;;;;;37.00;24.83;;;21.80;33.90;;;;;;6172484;28;83049;-51
2020/12/22 04:38:28;;;;;;;38.35;25.17;;;21.80;33.80;;;;;;6167409;27;83307;-49
2020/12/22 04:41:28;;;;;;;42.70;27.35;;;21.80;33.50;;;;;;6175452;28;83432;-50
2020/12/22 04:44:29;;;;;;;40.50;27.52;;;21.80;33.30;;;;;;6179627;27;88390;-51
2020/12/22 04:47:30;;;;;;;41.42;25.95;;;21.80;33.50;;;;;;6188105;28;85098;-52
2020/12/22 04:50:30;;;;;;;41.08;27.33;;;21.80;33.40;;;;;;6181868;27;85833;-51
2020/12/22 04:53:31;;;;;;;42.75;26.90;;;21.80;33.00;;;;;;6163612;28;83349;-51
2020/12/22 04:56:32;;;;;;;39.40;25.30;;;21.80;32.80;;;;;;6149884;28;84573;-49
2020/12/22 04:59:32;;;;;;;41.17;26.10;;;21.90;33.40;;;;;;6146808;28;83366;-48
2020/12/22 05:02:33;;;;;;;40.67;26.48;;;21.90;33.10;;;;;;6181158;28;83402;-48
2020/12/22 05:05:33;;;;;;;39.92;24.65;;;22.00;32.80;;;;;;6174657;28;83595;-48
2020/12/22 05:08:33;;;;;;;38.20;26.45;;;22.00;34.10;;;;;;6170032;28;83083;-52
2020/12/22 05:11:34;;;;;;;35.92;24.05;;;22.10;32.90;;;;;;6186133;28;83264;-51
2020/12/22 05:14:34;;;;;;;37.67;24.73;;;22.10;34.40;;;;;;6167659;28;86528;-50
2020/12/22 05:17:35;;;;;;;38.65;25.33;;;22.20;34.70;;;;;;6168907;28;83120;-51
2020/12/22 05:20:35;;;;;;;37.17;25.02;;;22.20;33.30;;;;;;6168654;28;83451;-49
2020/12/22 05:23:36;;;;;;;39.42;25.15;;;22.20;33.40;;;;;;6178090;27;83093;-49
2020/12/22 05:26:36;;;;;;;35.38;25.08;;;22.20;34.30;;;;;;6179450;28;83246;-51
2020/12/22 05:29:37;;;;;;;41.00;25.55;;;22.30;33.20;;;;;;6178254;28;83754;-49
2020/12/22 05:32:37;;;;;;;37.55;24.88;;;22.30;34.20;;;;;;6185884;28;83197;-48
2020/12/22 05:35:38;;;;;;;36.65;24.38;;;22.30;34.50;;;;;;6168886;27;83241;-49
2020/12/22 05:38:38;;;;;;;42.53;26.92;;;22.40;33.70;;;;;;6179199;28;86256;-48
2020/12/22 05:41:39;;;;;;;39.97;26.25;;;22.40;32.40;;;;;;6179438;27;83989;-53
2020/12/22 05:44:39;;;;;;;38.75;24.38;;;22.40;32.40;;;;;;6172212;28;84123;-48
2020/12/22 05:47:40;;;;;;;39.80;26.17;;;22.40;34.40;;;;;;6172058;27;83070;-50
2020/12/22 05:50:40;;;;;;;38.53;27.02;;;22.40;33.90;;;;;;6175602;28;85223;-53
2020/12/22 05:53:41;;;;;;;44.83;29.70;;;22.50;34.00;;;;;;6158877;28;83500;-52
2020/12/22 05:56:42;;;;;;;43.38;27.85;;;22.50;32.40;;;;;;6167851;28;83548;-52
2020/12/22 05:59:42;;;;;;;41.13;25.80;;;22.50;32.80;;;;;;6175866;28;83562;-51
2020/12/22 06:02:43;;;;;;;40.78;26.13;;;22.60;34.50;;;;;;6159080;28;83541;-51
2020/12/22 06:05:43;;;;;;;44.95;26.40;;;22.60;33.20;;;;;;6147735;28;83901;-48
2020/12/22 06:08:44;;;;;;;42.33;28.40;;;22.60;32.70;;;;;;6166499;28;83144;-51
2020/12/22 06:11:44;;;;;;;41.65;27.45;;;22.60;33.60;;;;;;6176382;28;84369;-50
2020/12/22 06:14:45;;;;;;;47.47;28.25;;;22.60;35.20;;;;;;6174929;27;83554;-52
2020/12/22 06:17:45;;;;;;;41.58;26.92;;;22.60;33.00;;;;;;6165691;28;84386;-48
2020/12/22 06:20:46;;;;;;;42.35;28.05;;;22.70;34.00;;;;;;6166647;27;83454;-50
2020/12/22 06:23:46;;;;;;;47.90;30.27;;;22.70;32.50;;;;;;6173232;28;84093;-51
2020/12/22 06:26:47;;;;;;;48.97;29.58;;;22.70;32.60;;;;;;6174468;27;84118;-48
2020/12/22 06:29:47;;;;;;;46.47;28.45;;;22.80;32.20;;;;;;6175148;28;84140;-52
2020/12/22 06:32:48;;;;;;;41.33;24.30;;;22.80;33.40;;;;;;6174504;28;83633;-52
2020/12/22 06:35:48;;;;;;;39.28;23.40;;;22.80;34.80;;;;;;6174671;28;83478;-52
2020/12/22 06:38:49;;;;;;;32.80;21.55;;;22.80;35.90;;;;;;6175052;27;83158;-53
2020/12/22 06:41:49;;;;;;;32.20;18.63;;;22.80;36.60;;;;;;6176455;28;92271;-50
2020/12/22 06:44:50;;;;;;;29.58;17.95;;;22.80;38.10;;;;;;6175409;28;82720;-47
2020/12/22 06:47:50;;;;;;;25.05;16.13;;;22.80;37.90;;;;;;6174714;28;85684;-47
2020/12/22 06:50:51;;;;;;;20.45;15.35;;;22.70;39.10;;;;;;6173583;27;83084;-52
2020/12/22 06:53:51;;;;;;;24.30;16.35;;;22.60;39.40;;;;;;6174770;28;83952;-52
2020/12/22 06:56:52;;;;;;;22.05;14.10;;;22.60;40.30;;;;;;6175520;28;83346;-52
2020/12/22 06:59:53;;;;;;;25.02;14.23;;;22.60;40.30;;;;;;6175634;28;83761;-53
2020/12/22 07:02:53;;;;;;;23.67;15.00;;;22.50;40.40;;;;;;6172159;27;83112;-47
2020/12/22 07:05:54;;;;;;;24.65;13.85;;;22.60;40.30;;;;;;6153710;28;83586;-46
2020/12/22 07:08:54;;;;;;;21.83;13.93;;;22.50;41.00;;;;;;6166089;28;83713;-51
2020/12/22 07:11:55;;;;;;;22.48;13.60;;;22.50;41.10;;;;;;6174401;28;86870;-47
2020/12/22 07:14:55;;;;;;;20.13;13.52;;;22.40;41.30;;;;;;6171147;27;83385;-48
2020/12/22 07:17:56;;;;;;;22.95;14.30;;;22.30;41.40;;;;;;6173478;28;83590;-47
2020/12/22 07:20:56;;;;;;;19.75;12.80;;;22.30;41.70;;;;;;6173820;27;83305;-47
2020/12/22 07:23:57;;;;;;;21.73;13.10;;;22.30;41.70;;;;;;6175041;28;83217;-46
2020/12/22 07:26:57;;;;;;;21.48;13.32;;;22.30;41.80;;;;;;6172395;27;83400;-47
2020/12/22 07:29:58;;;;;;;20.73;13.73;;;22.30;41.90;;;;;;6169782;28;84150;-47
2020/12/22 07:32:59;;;;;;;20.27;13.77;;;22.30;41.90;;;;;;6168823;27;84351;-50
2020/12/22 07:35:59;;;;;;;19.27;13.55;;;22.30;41.80;;;;;;6167876;28;83144;-45
2020/12/22 07:39:00;;;;;;;345.65;107.50;;;22.30;41.90;;;;;;6167559;28;83839;-46
2020/12/22 07:42:00;;;;;;;537.10;179.13;;;22.30;42.30;;;;;;6165678;28;85780;-45
2020/12/22 07:45:01;;;;;;;674.78;246.55;;;22.30;42.40;;;;;;6165020;27;86387;-47
2020/12/22 07:48:01;;;;;;;762.45;295.45;;;22.40;42.70;;;;;;6162467;28;85858;-49
2020/12/22 07:51:02;;;;;;;768.17;292.45;;;22.30;42.60;;;;;;6167594;27;86345;-46
2020/12/22 07:54:02;;;;;;;953.42;370.90;;;22.40;42.90;;;;;;6166011;28;86005;-48
2020/12/22 07:57:03;;;;;;;1018.80;411.02;;;22.30;43.10;;;;;;6168069;27;86641;-49
2020/12/22 08:00:03;;;;;;;1079.20;427.17;;;22.40;42.90;;;;;;6168218;28;85996;-50
2020/12/22 08:03:05;;;;;;;1099.95;430.15;;;22.50;42.40;;;;;;6167271;28;90740;-47
2020/12/22 08:06:05;;;;;;;935.60;362.50;;;22.60;42.10;;;;;;6170837;28;85860;-49
2020/12/22 08:09:06;;;;;;;718.30;277.77;;;22.50;43.20;;;;;;6165200;27;88641;-50
2020/12/22 08:12:06;;;;;;;594.85;208.15;;;22.50;42.80;;;;;;6167259;28;85702;-50
2020/12/22 08:15:07;;;;;;;485.05;158.93;;;22.40;42.70;;;;;;6167390;27;86452;-47
2020/12/22 08:18:07;;;;;;;387.52;134.82;;;22.40;42.50;;;;;;6164081;28;85646;-49
2020/12/22 08:21:08;;;;;;;333.17;114.50;;;22.40;42.40;;;;;;6150159;27;86326;-47
2020/12/22 08:24:08;;;;;;;256.75;92.25;;;22.40;42.50;;;;;;6172307;28;85933;-48
2020/12/22 08:27:09;;;;;;;238.07;82.32;;;22.50;42.40;;;;;;6172032;28;85253;-47
2020/12/22 08:30:09;;;;;;;194.18;71.07;;;22.40;42.20;;;;;;6173239;28;84006;-47
2020/12/22 08:33:10;;;;;;;169.88;62.95;;;22.40;42.40;;;;;;6172571;28;83105;-47
2020/12/22 08:36:11;;;;;;;164.63;62.67;;;22.50;43.30;;;;;;6183904;28;83691;-46
2020/12/22 08:39:11;;;;;;;159.52;62.35;;;22.50;42.60;;;;;;6155497;27;83497;-45
2020/12/22 08:42:12;;;;;;;160.95;60.97;;;22.50;42.10;;;;;;6143873;28;83790;-45
2020/12/22 08:45:12;;;;;;;145.98;63.50;;;22.50;41.10;;;;;;6151391;28;83665;-49
2020/12/22 08:48:13;;;;;;;148.80;63.50;;;22.50;41.10;;;;;;6174489;28;83372;-48
2020/12/22 08:51:13;;;;;;;149.00;62.20;;;22.50;41.00;;;;;;6174862;28;83790;-51
2020/12/22 08:54:14;;;;;;;158.13;63.53;;;22.60;41.00;;;;;;6176053;28;83444;-51
2020/12/22 08:57:14;;;;;;;149.65;61.95;;;22.60;41.60;;;;;;6154152;28;83660;-47
2020/12/22 09:00:15;;;;;;;142.63;64.22;;;22.70;42.90;;;;;;6145292;28;85141;-50
2020/12/22 09:03:15;;;;;;;132.07;58.78;;;22.80;44.00;;;;;;6173015;28;83840;-48
2020/12/22 09:06:16;;;;;;;121.93;57.45;;;22.80;43.70;;;;;;6173014;28;86034;-48
2020/12/22 09:09:17;;;;;;;119.90;56.80;;;23.00;42.80;;;;;;6173618;28;83639;-48
2020/12/22 09:12:17;;;;;;;120.57;55.08;;;23.00;42.50;;;;;;6171128;28;83385;-51
2020/12/22 09:15:18;;;;;;;110.90;52.88;;;23.10;41.70;;;;;;6172676;28;83179;-51
2020/12/22 09:18:18;;;;;;;113.18;52.58;;;23.20;40.90;;;;;;6176630;28;83311;-49
2020/12/22 09:21:19;;;;;;;99.80;52.38;;;23.20;40.40;;;;;;6175782;28;83408;-51
2020/12/22 09:24:19;;;;;;;104.70;52.95;;;23.20;39.90;;;;;;6168773;28;83237;-46
2020/12/22 09:27:20;;;;;;;114.30;51.45;;;23.30;39.70;;;;;;6177437;27;83337;-48
2020/12/22 09:30:20;;;;;;;97.97;48.90;;;23.30;39.90;;;;;;6174897;28;83791;-48
2020/12/22 09:33:21;;;;;;;97.32;49.75;;;23.30;39.00;;;;;;6175672;27;83990;-47
2020/12/22 09:36:21;;;;;;;95.88;49.13;;;23.40;39.00;;;;;;6164537;28;83686;-45
2020/12/22 09:39:22;;;;;;;93.95;48.72;;;23.40;38.60;;;;;;6173173;28;84923;-46
2020/12/22 09:42:23;;;;;;;93.28;48.13;;;23.40;38.30;;;;;;6173662;28;83639;-47
2020/12/22 09:45:23;;;;;;;82.35;46.78;;;23.40;38.30;;;;;;6175347;28;83559;-46
2020/12/22 09:48:24;;;;;;;90.95;48.10;;;23.40;38.40;;;;;;6170711;28;83211;-47
2020/12/22 09:51:24;;;;;;;81.50;45.83;;;23.40;38.40;;;;;;6177267;27;83532;-49
2020/12/22 09:54:25;;;;;;;89.70;45.78;;;23.40;38.10;;;;;;6175149;28;84372;-49
2020/12/22 09:57:25;;;;;;;84.82;46.40;;;23.40;38.20;;;;;;6177203;28;83937;-49
2020/12/22 10:00:26;;;;;;;84.20;47.63;;;23.30;38.30;;;;;;6174057;28;83780;-51
2020/12/22 10:03:26;;;;;;;81.55;45.05;;;23.30;38.50;;;;;;6171886;28;83381;-46
2020/12/22 10:06:27;;;;;;;81.68;43.97;;;23.30;38.80;;;;;;6173744;28;84399;-51
2020/12/22 10:09:27;;;;;;;80.05;44.60;;;23.30;39.00;;;;;;6169335;27;82919;-48
2020/12/22 10:12:28;;;;;;;81.93;45.05;;;23.20;38.70;;;;;;6174396;28;83031;-50
2020/12/22 10:15:28;;;;;;;75.22;44.28;;;23.20;38.50;;;;;;6174156;27;88137;-47
2020/12/22 10:18:29;;;;;;;81.80;43.58;;;23.20;38.40;;;;;;6175110;28;83631;-47
2020/12/22 10:21:29;;;;;;;78.80;43.53;;;23.20;38.80;;;;;;6171489;28;83498;-47
2020/12/22 10:24:30;;;;;;;74.45;42.70;;;23.20;38.70;;;;;;6169357;28;83246;-46
2020/12/22 10:27:30;;;;;;;73.32;42.35;;;23.20;38.50;;;;;;6174279;28;83468;-49
2020/12/22 10:30:31;;;;;;;73.15;43.90;;;23.20;38.60;;;;;;6174742;28;84536;-45
2020/12/22 10:33:31;;;;;;;74.15;42.35;;;23.20;38.20;;;;;;6175409;28;83486;-47
2020/12/22 10:36:32;;;;;;;80.50;43.80;;;23.20;38.10;;;;;;6171600;28;83699;-49
2020/12/22 10:39:34;;;;;;;82.70;43.08;;;23.20;38.00;;;;;;6174028;27;83517;-46
2020/12/22 10:42:34;;;;;;;71.32;42.17;;;23.20;38.00;;;;;;6171617;28;83303;-46
2020/12/22 10:45:35;;;;;;;71.15;41.78;;;23.10;37.60;;;;;;6174788;27;83828;-47
2020/12/22 10:48:35;;;;;;;74.20;42.55;;;23.10;37.60;;;;;;6158477;28;83574;-49
2020/12/22 10:51:36;;;;;;;70.78;39.92;;;23.10;36.80;;;;;;6170966;28;83037;-50
2020/12/22 10:54:36;;;;;;;66.93;40.40;;;23.10;37.10;;;;;;6174724;28;83842;-48
2020/12/22 10:57:37;;;;;;;86.43;41.22;;;23.10;36.90;;;;;;6153667;28;86083;-47
2020/12/22 11:00:37;;;;;;;66.93;40.05;;;23.00;36.50;;;;;;6151251;28;83561;-47
2020/12/22 11:03:38;;;;;;;63.75;39.60;;;23.10;36.50;;;;;;6173198;28;83761;-46
2020/12/22 11:09:39;;;;;;;73.60;40.00;;;23.00;36.80;;;;;;6152460;28;84023;-47
2020/12/22 11:12:40;;;;;;;64.22;39.40;;;23.00;36.90;;;;;;6172384;28;84969;-49
2020/12/22 11:15:40;;;;;;;66.50;39.92;;;22.90;36.70;;;;;;6172577;28;85493;-50
2020/12/22 11:18:41;;;;;;;64.90;38.63;;;23.00;36.90;;;;;;6166896;28;84795;-49
2020/12/22 11:21:41;;;;;;;63.65;38.78;;;23.00;37.60;;;;;;6163404;28;85091;-47
2020/12/22 11:24:41;;;;;;;63.58;39.67;;;23.00;38.10;;;;;;6148568;28;83038;-49
2020/12/22 11:27:42;;;;;;;71.68;40.75;;;23.10;38.50;;;;;;6182166;28;86120;-47
2020/12/22 11:30:42;;;;;;;65.63;40.35;;;23.10;38.70;;;;;;6146025;28;87504;-46
2020/12/22 11:33:43;;;;;;;66.53;39.50;;;23.10;39.20;;;;;;6171550;28;83430;-49
2020/12/22 11:36:43;;;;;;;61.13;38.92;;;23.00;39.30;;;;;;6171852;28;83416;-49
2020/12/22 11:39:44;;;;;;;62.17;38.00;;;23.00;40.20;;;;;;6147529;28;83445;-49
2020/12/22 11:42:44;;;;;;;66.95;39.05;;;23.00;39.80;;;;;;6173407;28;83267;-49
2020/12/22 11:45:45;;;;;;;58.90;37.22;;;23.10;39.70;;;;;;6169594;28;82981;-49
2020/12/22 11:48:45;;;;;;;63.42;39.28;;;23.10;39.60;;;;;;6145576;28;83289;-49
2020/12/22 11:51:46;;;;;;;61.15;38.70;;;23.10;39.30;;;;;;6172473;28;83354;-48
2020/12/22 11:54:47;;;;;;;61.92;37.08;;;23.10;38.90;;;;;;6171828;28;84174;-49
2020/12/22 11:57:47;;;;;;;57.78;37.05;;;23.10;38.70;;;;;;6171654;28;84829;-52
2020/12/22 12:00:48;;;;;;;62.28;37.72;;;23.00;38.80;;;;;;6169264;27;83247;-50
2020/12/22 12:03:48;;;;;;;62.92;37.10;;;23.00;39.00;;;;;;6169735;28;84139;-48
2020/12/22 12:06:49;;;;;;;62.47;35.75;;;23.00;38.70;;;;;;6152577;27;83344;-48
2020/12/22 12:09:49;;;;;;;57.53;37.40;;;23.00;38.50;;;;;;6170556;28;83616;-49
2020/12/22 12:12:50;;;;;;;60.38;35.97;;;23.00;38.40;;;;;;6166238;27;83325;-48
2020/12/22 12:15:50;;;;;;;61.22;37.67;;;23.00;37.60;;;;;;6172148;28;84999;-50
2020/12/22 12:18:51;;;;;;;64.32;38.50;;;23.00;38.00;;;;;;6166922;28;83879;-47
2020/12/22 12:21:51;;;;;;;61.60;36.45;;;23.00;38.00;;;;;;6147658;28;87105;-49
2020/12/22 12:24:52;;;;;;;59.53;37.72;;;23.00;38.10;;;;;;6169530;28;83138;-48
2020/12/22 12:27:52;;;;;;;55.35;35.67;;;23.00;38.10;;;;;;6169664;27;85070;-47
2020/12/22 12:30:53;;;;;;;60.85;37.17;;;23.00;38.50;;;;;;6168559;28;84086;-47
2020/12/22 12:33:53;;;;;;;59.72;35.78;;;23.00;38.30;;;;;;6170500;28;83482;-47
2020/12/22 12:36:54;;;;;;;58.42;35.60;;;23.00;38.10;;;;;;6171484;28;84415;-47
2020/12/22 12:39:54;;;;;;;63.30;37.97;;;23.00;38.40;;;;;;6171805;28;83387;-48
2020/12/22 12:42:55;;;;;;;61.85;36.50;;;23.00;38.30;;;;;;6165257;28;83007;-51
2020/12/22 12:45:55;;;;;;;60.03;34.97;;;23.00;38.40;;;;;;6146233;28;84863;-49
2020/12/22 12:48:56;;;;;;;66.32;37.03;;;23.00;37.90;;;;;;6167468;28;83345;-45
2020/12/22 12:51:56;;;;;;;59.35;36.28;;;22.90;38.10;;;;;;6172803;28;83609;-46
2020/12/22 12:54:57;;;;;;;62.00;37.13;;;23.00;37.80;;;;;;6171361;27;83457;-46
2020/12/22 12:57:58;;;;;;;59.72;37.00;;;23.00;37.20;;;;;;6169866;28;84149;-45
2020/12/22 13:00:58;;;;;;;64.32;38.80;;;23.00;36.80;;;;;;6147317;28;88535;-43
2020/12/22 13:03:59;;;;;;;61.97;36.00;;;23.10;36.50;;;;;;6149689;28;83564;-46
2020/12/22 13:06:59;;;;;;;61.03;35.50;;;23.10;36.90;;;;;;6166648;28;83687;-47
2020/12/22 13:10:00;;;;;;;55.78;35.17;;;23.10;36.10;;;;;;6158415;27;84493;-48
2020/12/22 13:13:00;;;;;;;61.38;36.75;;;23.20;35.90;;;;;;6177462;28;83505;-47
2020/12/22 13:16:01;;;;;;;53.97;35.33;;;23.20;35.70;;;;;;6165561;27;84158;-48
2020/12/22 13:19:01;;;;;;;63.90;36.03;;;23.20;35.60;;;;;;6176652;28;85854;-48
2020/12/22 13:22:02;;;;;;;62.08;35.03;;;23.20;35.50;;;;;;6176685;28;83552;-47
2020/12/22 13:25:02;;;;;;;57.78;34.97;;;23.20;35.40;;;;;;6173265;28;83643;-47
2020/12/22 13:28:03;;;;;;;60.60;36.95;;;23.30;35.30;;;;;;6175841;28;83429;-45
2020/12/22 13:31:03;;;;;;;60.30;36.53;;;23.30;35.40;;;;;;6176728;28;83185;-50
2020/12/22 13:34:04;;;;;;;58.63;34.90;;;23.30;35.40;;;;;;6149822;27;84231;-47
2020/12/22 13:37:04;;;;;;;69.93;35.80;;;23.20;35.20;;;;;;6175374;28;83416;-44
2020/12/22 13:40:05;;;;;;;56.58;33.85;;;23.20;35.20;;;;;;6172321;27;83043;-47
2020/12/22 13:43:05;;;;;;;56.20;34.65;;;23.20;35.30;;;;;;6171815;28;83780;-47
2020/12/22 13:46:06;;;;;;;58.05;33.20;;;23.30;35.10;;;;;;6171448;27;84716;-47
2020/12/22 13:49:06;;;;;;;54.15;33.13;;;23.30;34.70;;;;;;6177054;28;86210;-49
2020/12/22 13:52:07;;;;;;;57.03;33.80;;;23.30;34.60;;;;;;6175243;28;86291;-46
2020/12/22 13:55:08;;;;;;;62.10;33.90;;;23.30;34.60;;;;;;6175784;27;84493;-48
2020/12/22 13:58:08;;;;;;;56.20;33.45;;;23.30;34.60;;;;;;6176896;28;84291;-47
2020/12/22 14:01:09;;;;;;;53.28;31.38;;;23.20;34.50;;;;;;6172508;28;86178;-46
2020/12/22 14:04:09;;;;;;;55.45;31.50;;;23.20;34.50;;;;;;6172662;28;83036;-47
2020/12/22 14:07:10;;;;;;;47.65;29.90;;;23.20;34.70;;;;;;6173921;27;82856;-47
2020/12/22 14:10:10;;;;;;;51.78;29.92;;;23.20;34.70;;;;;;6174359;28;85949;-47
2020/12/22 14:13:11;;;;;;;50.25;29.13;;;23.20;34.80;;;;;;6172925;28;83390;-48
2020/12/22 14:16:12;;;;;;;48.03;28.80;;;23.10;34.80;;;;;;6176305;28;83120;-47
2020/12/22 14:19:12;;;;;;;46.60;28.23;;;23.10;35.00;;;;;;6175181;27;85577;-47
2020/12/22 14:22:13;;;;;;;39.00;25.90;;;23.10;35.10;;;;;;6174166;28;83216;-46
2020/12/22 14:25:13;;;;;;;46.75;26.52;;;23.10;35.10;;;;;;6176260;28;83774;-49
2020/12/22 14:28:14;;;;;;;44.50;26.30;;;23.10;35.00;;;;;;6176776;28;83017;-45
2020/12/22 14:31:14;;;;;;;41.25;24.90;;;23.10;35.10;;;;;;6172205;27;83399;-49
2020/12/22 14:34:15;;;;;;;41.70;24.60;;;23.10;35.00;;;;;;6175570;28;83368;-49
2020/12/22 14:37:15;;;;;;;40.65;24.27;;;23.10;35.20;;;;;;6174795;28;83692;-47
2020/12/22 14:40:16;;;;;;;37.95;22.70;;;23.10;35.30;;;;;;6174670;28;84168;-49
2020/12/22 14:43:16;;;;;;;34.83;21.65;;;23.10;35.50;;;;;;6172294;28;83256;-48
2020/12/22 14:46:17;;;;;;;42.88;23.65;;;23.00;35.20;;;;;;6179085;27;84335;-48
2020/12/22 14:49:17;;;;;;;34.88;21.45;;;23.00;35.40;;;;;;6176582;28;83396;-48
2020/12/22 14:52:18;;;;;;;34.58;21.10;;;23.00;35.40;;;;;;6150556;28;83449;-50
2020/12/22 14:55:18;;;;;;;37.45;20.60;;;23.00;35.40;;;;;;6149401;28;83677;-51
2020/12/22 14:58:19;;;;;;;32.05;20.45;;;23.10;36.00;;;;;;6149680;28;83004;-49
2020/12/22 15:01:19;;;;;;;32.28;18.30;;;23.10;36.30;;;;;;6155796;28;83114;-48
2020/12/22 15:04:21;;;;;;;36.25;18.58;;;23.10;37.10;;;;;;6174633;28;83278;-45
2020/12/22 15:07:22;;;;;;;37.97;19.75;;;23.10;36.40;;;;;;6174347;28;83734;-46
2020/12/22 15:10:22;;;;;;;43.92;20.38;;;23.10;37.20;;;;;;6172238;28;85383;-50
2020/12/22 15:13:23;;;;;;;39.85;19.15;;;23.10;37.90;;;;;;6175930;28;83775;-48
2020/12/22 15:16:23;;;;;;;37.88;18.50;;;23.10;38.40;;;;;;6176347;27;83479;-49